Time;durP1;ratioP1;P1;durP2;ratioP2;P2;SDS_P1;SDS_P2;PMS_P1;PMS_P2;Temp;Humidity;BMP_temperature;BMP_pressure;BME280_temperature;BME280_humidity;BME280_pressure;Samples;Min_cycle;Max_cycle;Signal;HPM_P1;HPM_P2
2022/10/10 00:02:14;;;;;;;2.85;2.53;;;11.30;99.90;;;;;;5054351;28;20210;-89
2022/10/10 00:04:42;;;;;;;2.60;2.40;;;11.30;99.90;;;;;;5054288;28;20205;-90
2022/10/10 00:07:10;;;;;;;2.78;2.50;;;11.30;99.90;;;;;;5054091;28;20222;-89
2022/10/10 00:09:39;;;;;;;2.65;2.10;;;11.30;99.90;;;;;;5054031;28;20214;-89
2022/10/10 00:12:08;;;;;;;2.95;2.08;;;11.20;99.90;;;;;;5054111;28;20190;-89
2022/10/10 00:14:36;;;;;;;1.98;1.88;;;11.20;99.90;;;;;;5054353;28;20213;-90
2022/10/10 00:17:05;;;;;;;2.22;2.03;;;11.20;99.90;;;;;;5054006;28;20225;-90
2022/10/10 00:19:33;;;;;;;2.83;2.17;;;11.20;99.90;;;;;;5054438;28;20214;-90
2022/10/10 00:22:01;;;;;;;2.53;1.90;;;11.20;99.90;;;;;;5056348;28;20222;-89
2022/10/10 00:24:30;;;;;;;2.83;2.25;;;11.20;99.90;;;;;;5056697;28;20217;-89
2022/10/10 00:26:58;;;;;;;9.30;2.88;;;11.20;99.90;;;;;;5053646;28;20225;-89
2022/10/10 00:29:27;;;;;;;2.75;2.35;;;11.10;99.90;;;;;;5053401;28;20205;-89
2022/10/10 00:31:56;;;;;;;2.47;2.28;;;11.10;99.90;;;;;;5053577;28;20196;-90
2022/10/10 00:34:24;;;;;;;2.47;2.28;;;11.10;99.90;;;;;;5054010;28;20290;-90
2022/10/10 00:36:53;;;;;;;3.70;2.47;;;11.10;99.90;;;;;;5053423;28;20229;-89
2022/10/10 00:39:21;;;;;;;2.03;1.85;;;11.00;99.90;;;;;;5053156;28;20204;-89
2022/10/10 00:41:49;;;;;;;2.80;2.50;;;11.00;99.90;;;;;;5053008;28;20213;-90
2022/10/10 00:44:17;;;;;;;3.28;2.53;;;11.00;99.90;;;;;;5053777;28;20202;-90
2022/10/10 00:46:47;;;;;;;2.33;1.80;;;11.00;99.90;;;;;;5053646;28;20214;-90
2022/10/10 00:49:26;;;;;;;6.03;2.10;;;10.90;99.90;;;;;;5053607;28;20212;-91
2022/10/10 00:52:08;;;;;;;2.55;2.20;;;10.90;99.90;;;;;;5053736;28;20194;-91
2022/10/10 00:54:53;;;;;;;4.82;1.75;;;10.90;99.90;;;;;;5053575;28;20209;-91
2022/10/10 00:57:29;;;;;;;1.80;1.63;;;10.90;99.90;;;;;;5053359;28;20229;-92
2022/10/10 01:00:02;;;;;;;1.92;1.80;;;10.90;99.90;;;;;;5053522;28;20209;-91
2022/10/10 01:02:40;;;;;;;3.15;2.28;;;10.90;99.90;;;;;;5052977;28;20224;-92
2022/10/10 01:08:34;;;;;;;3.42;2.20;;;10.80;99.90;;;;;;5052610;28;20224;-91
2022/10/10 01:11:26;;;;;;;2.30;2.08;;;10.80;99.90;;;;;;5052825;28;20208;-92
2022/10/10 01:14:09;;;;;;;3.35;1.83;;;10.80;99.90;;;;;;5053660;28;20262;-92
2022/10/10 01:16:55;;;;;;;2.10;2.00;;;10.70;99.90;;;;;;5052117;28;20224;-91
2022/10/10 01:20:17;;;;;;;2.03;1.55;;;10.70;99.90;;;;;;5052950;28;20239;-92
2022/10/10 01:23:11;;;;;;;10.38;2.80;;;10.70;99.90;;;;;;5030105;28;20233;-91
2022/10/10 01:26:04;;;;;;;1.67;1.58;;;10.70;99.90;;;;;;5052556;28;20213;-92
2022/10/10 01:29:03;;;;;;;1.90;1.80;;;10.70;99.90;;;;;;5040048;23;20266;-92
2022/10/10 01:31:54;;;;;;;3.17;2.20;;;10.70;99.90;;;;;;5032853;28;20198;-93
2022/10/10 01:34:53;;;;;;;5.03;2.25;;;10.70;99.90;;;;;;5013249;28;20222;-91
2022/10/10 01:37:42;;;;;;;1.63;1.52;;;10.60;99.90;;;;;;5032077;28;20311;-91
2022/10/10 01:40:20;;;;;;;2.22;1.88;;;10.60;99.90;;;;;;5033072;28;20204;-91
2022/10/10 01:42:53;;;;;;;1.88;1.75;;;10.60;99.90;;;;;;5038683;28;20312;-90
2022/10/10 01:45:24;;;;;;;2.28;2.08;;;10.60;99.90;;;;;;5038361;28;20206;-92
2022/10/10 01:47:55;;;;;;;4.03;2.25;;;10.60;99.90;;;;;;5037335;28;20233;-92
2022/10/10 01:50:26;;;;;;;1.90;1.75;;;10.60;99.90;;;;;;5036579;28;20199;-91
2022/10/10 01:59:42;;;;;;;2.45;2.25;;;10.50;99.90;;;;;;5036490;28;20285;-91
2022/10/10 02:02:43;;;;;;;2.03;1.80;;;10.50;99.90;;;;;;5036569;28;20317;-91
2022/10/10 02:05:43;;;;;;;1.83;1.73;;;10.50;99.90;;;;;;5036128;28;20203;-91
2022/10/10 02:08:38;;;;;;;2.38;2.03;;;10.50;99.90;;;;;;5017359;28;20239;-91
2022/10/10 02:11:19;;;;;;;7.28;2.72;;;10.50;99.90;;;;;;5036296;28;20206;-92
2022/10/10 02:13:52;;;;;;;2.35;1.98;;;10.50;99.90;;;;;;5036675;28;20286;-91
2022/10/10 02:16:27;;;;;;;2.72;1.95;;;10.50;99.90;;;;;;5036693;28;20306;-91
2022/10/10 02:18:59;;;;;;;6.53;2.05;;;10.50;99.90;;;;;;5036274;28;20273;-92
2022/10/10 02:21:29;;;;;;;2.65;2.22;;;10.40;99.90;;;;;;5036262;28;20216;-91
2022/10/10 02:24:01;;;;;;;2.33;2.05;;;10.50;99.90;;;;;;5035869;28;20199;-91
2022/10/10 02:26:32;;;;;;;2.40;2.20;;;10.40;99.90;;;;;;5036354;28;20202;-91
2022/10/10 02:29:06;;;;;;;1.98;1.88;;;10.40;99.90;;;;;;5036312;28;20210;-91
2022/10/10 02:31:39;;;;;;;3.20;2.20;;;10.50;99.90;;;;;;5036085;28;20222;-91
2022/10/10 02:34:18;;;;;;;2.47;2.30;;;10.50;99.90;;;;;;5036058;28;20195;-91
2022/10/10 02:36:50;;;;;;;1.95;1.77;;;10.40;99.90;;;;;;5036014;28;20294;-91
2022/10/10 02:39:23;;;;;;;4.13;2.33;;;10.40;99.90;;;;;;5035769;28;20194;-91
2022/10/10 02:41:52;;;;;;;2.65;2.35;;;10.40;99.90;;;;;;5036221;28;20218;-91
2022/10/10 02:44:22;;;;;;;2.53;1.80;;;10.40;99.90;;;;;;5035604;28;20198;-91
2022/10/10 02:46:50;;;;;;;2.28;2.15;;;10.30;99.90;;;;;;5035782;28;20227;-91
2022/10/10 02:49:26;;;;;;;2.60;2.40;;;10.30;99.90;;;;;;5035419;28;20282;-92
2022/10/10 02:51:54;;;;;;;2.63;2.30;;;10.30;99.90;;;;;;5035087;28;20194;-91
2022/10/10 02:54:23;;;;;;;6.85;1.90;;;10.30;99.90;;;;;;5035736;28;20211;-91
2022/10/10 02:56:51;;;;;;;1.88;1.73;;;10.30;99.90;;;;;;5035654;28;20257;-91
2022/10/10 02:59:20;;;;;;;3.45;2.00;;;10.30;99.90;;;;;;5035512;28;20214;-90
2022/10/10 03:01:48;;;;;;;2.05;1.90;;;10.30;99.90;;;;;;5037357;28;20203;-91
2022/10/10 03:04:17;;;;;;;1.83;1.65;;;10.40;99.90;;;;;;5038407;28;20211;-91
2022/10/10 03:06:47;;;;;;;2.17;1.98;;;10.40;99.90;;;;;;5035102;28;20222;-91
2022/10/10 03:09:15;;;;;;;21.10;2.10;;;10.40;99.90;;;;;;5035533;28;20216;-91
2022/10/10 03:11:43;;;;;;;2.22;2.03;;;10.50;99.90;;;;;;5035272;28;20216;-91
2022/10/10 03:14:12;;;;;;;1.95;1.85;;;10.50;99.90;;;;;;5035742;28;20206;-92
2022/10/10 03:16:40;;;;;;;2.95;2.20;;;10.50;99.90;;;;;;5034599;28;20226;-90
2022/10/10 03:19:08;;;;;;;2.78;2.35;;;10.60;99.90;;;;;;5035095;28;20210;-90
2022/10/10 03:21:37;;;;;;;2.17;2.08;;;10.60;99.90;;;;;;5035544;28;20206;-90
2022/10/10 03:24:07;;;;;;;2.78;2.47;;;10.60;99.90;;;;;;5035104;28;20222;-91
2022/10/10 03:26:35;;;;;;;2.20;1.92;;;10.60;99.90;;;;;;5034668;28;20227;-90
2022/10/10 03:29:04;;;;;;;2.17;2.03;;;10.60;99.90;;;;;;5035012;28;20202;-90
2022/10/10 03:31:32;;;;;;;2.03;1.88;;;10.60;99.90;;;;;;5034955;28;20215;-89
2022/10/10 03:34:00;;;;;;;2.33;2.13;;;10.60;99.90;;;;;;5034723;28;20209;-90
2022/10/10 03:36:29;;;;;;;3.30;2.10;;;10.50;99.90;;;;;;5034973;28;20208;-90
2022/10/10 03:38:58;;;;;;;1.83;1.73;;;10.50;99.90;;;;;;5034807;28;20190;-93
2022/10/10 03:41:28;;;;;;;2.42;2.22;;;10.50;99.90;;;;;;5022197;28;20210;-90
2022/10/10 03:43:56;;;;;;;2.40;2.13;;;10.50;99.90;;;;;;5033930;28;20233;-92
2022/10/10 03:46:25;;;;;;;2.20;2.10;;;10.50;99.90;;;;;;5034909;28;20203;-92
2022/10/10 03:48:54;;;;;;;3.00;1.95;;;10.40;99.90;;;;;;5034608;28;20262;-91
2022/10/10 03:51:23;;;;;;;2.03;1.83;;;10.40;99.90;;;;;;5035017;28;20206;-92
2022/10/10 03:53:51;;;;;;;2.75;1.85;;;10.40;99.90;;;;;;5034936;28;20195;-91
2022/10/10 03:56:19;;;;;;;3.97;2.30;;;10.40;99.90;;;;;;5034551;28;20267;-91
2022/10/10 03:58:49;;;;;;;1.90;1.80;;;10.40;99.90;;;;;;5034114;28;20258;-90
2022/10/10 04:01:17;;;;;;;2.35;2.15;;;10.40;99.90;;;;;;5034878;28;20205;-91
2022/10/10 04:03:46;;;;;;;1.98;1.85;;;10.40;99.90;;;;;;5033854;28;20214;-91
2022/10/10 04:06:20;;;;;;;3.58;2.53;;;10.40;99.90;;;;;;5034453;28;20218;-91
2022/10/10 04:08:49;;;;;;;2.00;1.90;;;10.40;99.90;;;;;;5033977;28;20213;-91
2022/10/10 04:11:17;;;;;;;2.45;2.08;;;10.40;99.90;;;;;;5034746;28;20217;-91
2022/10/10 04:13:49;;;;;;;21.38;2.05;;;10.40;99.90;;;;;;5039760;28;20238;-90
2022/10/10 04:16:19;;;;;;;2.95;2.35;;;10.40;99.90;;;;;;5037032;28;20222;-91
2022/10/10 04:18:50;;;;;;;2.17;1.98;;;10.40;99.90;;;;;;5033486;28;20199;-91
2022/10/10 04:21:18;;;;;;;2.38;1.75;;;10.40;99.90;;;;;;5034477;28;20206;-92
2022/10/10 04:23:47;;;;;;;2.30;2.10;;;10.40;99.90;;;;;;5033353;28;20221;-90
2022/10/10 04:26:16;;;;;;;1.65;1.55;;;10.40;99.90;;;;;;5033640;28;20202;-90
2022/10/10 04:28:44;;;;;;;1.98;1.85;;;10.50;99.90;;;;;;5033842;28;20309;-92
2022/10/10 04:31:12;;;;;;;2.15;2.00;;;10.50;99.90;;;;;;5033674;28;20254;-92
2022/10/10 04:33:42;;;;;;;2.47;2.28;;;10.50;99.90;;;;;;5034146;28;20209;-91
2022/10/10 04:36:10;;;;;;;2.30;2.10;;;10.50;99.90;;;;;;5033645;28;20206;-93
2022/10/10 04:38:39;;;;;;;1.73;1.63;;;10.50;99.90;;;;;;5033311;28;20234;-91
2022/10/10 04:41:07;;;;;;;2.42;1.88;;;10.50;99.90;;;;;;5033806;28;20202;-91
2022/10/10 04:43:35;;;;;;;1.95;1.73;;;10.60;99.90;;;;;;5033834;28;20226;-91
2022/10/10 04:46:04;;;;;;;2.92;2.08;;;10.60;99.90;;;;;;5032829;28;20208;-91
2022/10/10 04:48:32;;;;;;;2.50;1.92;;;10.60;99.90;;;;;;5033689;28;20241;-91
2022/10/10 04:51:02;;;;;;;2.35;2.13;;;10.60;99.90;;;;;;5033309;28;20209;-91
2022/10/10 04:53:30;;;;;;;3.00;2.47;;;10.60;99.90;;;;;;5026288;28;20203;-92
2022/10/10 04:55:58;;;;;;;2.78;2.13;;;10.60;99.90;;;;;;5032833;28;20221;-90
2022/10/10 04:58:26;;;;;;;4.80;2.28;;;10.60;99.90;;;;;;5032744;28;20221;-91
2022/10/10 05:00:55;;;;;;;2.60;2.08;;;10.60;99.90;;;;;;5033498;28;20206;-91
2022/10/10 05:03:24;;;;;;;2.08;1.88;;;10.60;99.90;;;;;;5032412;28;20348;-90
2022/10/10 05:05:53;;;;;;;1.52;1.30;;;10.60;99.90;;;;;;5033890;28;20298;-90
2022/10/10 05:08:22;;;;;;;2.10;1.88;;;10.60;99.90;;;;;;5032468;28;20214;-92
2022/10/10 05:10:52;;;;;;;2.17;1.98;;;10.60;99.90;;;;;;5026015;28;20201;-90
2022/10/10 05:13:20;;;;;;;6.30;2.25;;;10.60;99.90;;;;;;5018725;28;20202;-84
2022/10/10 05:15:51;;;;;;;1.90;1.80;;;10.60;99.90;;;;;;5029774;28;20210;-85
2022/10/10 05:18:19;;;;;;;3.28;2.30;;;10.60;99.90;;;;;;5033224;28;20273;-85
2022/10/10 05:20:48;;;;;;;20.17;2.13;;;10.60;99.90;;;;;;5032874;28;20202;-84
2022/10/10 05:23:17;;;;;;;2.20;2.00;;;10.60;99.90;;;;;;5032501;28;20230;-85
2022/10/10 05:25:49;;;;;;;3.30;2.33;;;10.60;99.90;;;;;;5032363;28;20202;-84
2022/10/10 05:28:17;;;;;;;5.03;2.50;;;10.60;99.90;;;;;;5032716;28;20245;-84
2022/10/10 05:30:46;;;;;;;2.70;2.45;;;10.70;99.90;;;;;;5033010;28;20210;-86
2022/10/10 05:33:14;;;;;;;3.58;2.42;;;10.70;99.90;;;;;;5032873;28;20199;-85
2022/10/10 05:35:42;;;;;;;2.83;2.38;;;10.70;99.90;;;;;;5032361;28;20205;-84
2022/10/10 05:38:11;;;;;;;2.55;2.35;;;10.70;99.90;;;;;;5031981;28;20284;-84
2022/10/10 05:40:39;;;;;;;2.22;1.90;;;10.70;99.90;;;;;;5032082;28;20203;-85
2022/10/10 05:43:27;;;;;;;4.13;2.58;;;10.80;99.90;;;;;;5031140;28;20206;-84
2022/10/10 05:45:56;;;;;;;2.00;1.90;;;10.80;99.90;;;;;;5032466;28;20218;-85
2022/10/10 05:48:24;;;;;;;2.22;2.03;;;10.80;99.90;;;;;;5035766;28;20225;-85
2022/10/10 05:50:55;;;;;;;35.88;2.88;;;10.80;99.90;;;;;;5032928;28;20202;-85
2022/10/10 05:53:25;;;;;;;2.40;2.20;;;10.80;99.90;;;;;;5032505;28;20203;-84
2022/10/10 05:55:53;;;;;;;2.92;2.50;;;10.80;99.90;;;;;;5032655;28;20210;-84
2022/10/10 05:58:22;;;;;;;2.28;2.08;;;10.80;99.90;;;;;;5017454;28;20226;-84
2022/10/10 06:00:51;;;;;;;3.58;2.78;;;10.80;99.90;;;;;;5032581;28;20210;-85
2022/10/10 06:03:20;;;;;;;6.72;2.72;;;10.90;99.90;;;;;;5032939;28;20211;-85
2022/10/10 06:05:51;;;;;;;3.08;2.55;;;10.90;99.90;;;;;;5032157;28;20210;-84
2022/10/10 06:08:20;;;;;;;2.92;2.22;;;10.90;99.90;;;;;;5032303;28;20226;-85
2022/10/10 06:10:48;;;;;;;2.28;2.00;;;10.90;99.90;;;;;;5032625;28;20202;-84
2022/10/10 06:13:17;;;;;;;4.30;3.10;;;10.90;99.90;;;;;;5032812;28;20214;-84
2022/10/10 06:15:53;;;;;;;4.10;2.70;;;11.00;99.90;;;;;;5031973;28;20205;-84
2022/10/10 06:18:22;;;;;;;5.65;2.80;;;10.90;99.90;;;;;;5032217;28;20237;-84
2022/10/10 06:20:50;;;;;;;5.88;2.63;;;10.90;99.90;;;;;;5031350;28;20206;-84
2022/10/10 06:23:18;;;;;;;2.63;2.42;;;11.00;99.90;;;;;;5031359;28;20210;-84
2022/10/10 06:25:47;;;;;;;2.58;2.38;;;11.00;99.90;;;;;;5031691;28;20253;-85
2022/10/10 06:28:15;;;;;;;2.80;2.38;;;11.00;99.90;;;;;;5034212;28;20271;-85
2022/10/10 06:30:47;;;;;;;2.17;2.08;;;11.00;99.90;;;;;;5035810;28;20206;-85
2022/10/10 06:33:18;;;;;;;2.58;2.35;;;11.10;99.90;;;;;;5036617;28;20210;-85
2022/10/10 06:35:48;;;;;;;2.60;2.20;;;11.10;99.90;;;;;;5035773;28;20210;-85
2022/10/10 06:38:16;;;;;;;2.58;2.38;;;11.20;99.90;;;;;;5036149;28;20226;-85
2022/10/10 06:40:45;;;;;;;3.45;2.58;;;11.20;99.90;;;;;;5036290;28;20203;-85
2022/10/10 06:43:15;;;;;;;2.58;2.38;;;11.20;99.90;;;;;;5035596;28;20202;-85
2022/10/10 06:45:44;;;;;;;2.78;2.40;;;11.30;99.90;;;;;;5035705;28;20230;-85
2022/10/10 06:48:14;;;;;;;4.68;2.45;;;11.30;99.90;;;;;;5035651;28;20229;-85
2022/10/10 06:50:54;;;;;;;4.25;2.38;;;11.40;99.90;;;;;;5036302;28;20217;-85
2022/10/10 06:53:23;;;;;;;4.78;2.10;;;11.40;99.90;;;;;;5035947;28;20194;-85
2022/10/10 06:55:53;;;;;;;2.95;2.65;;;11.50;99.90;;;;;;5036247;28;20209;-85
2022/10/10 06:58:22;;;;;;;3.03;1.80;;;11.60;99.90;;;;;;5035144;28;20249;-85
2022/10/10 07:00:51;;;;;;;2.92;2.08;;;11.60;99.90;;;;;;5035601;28;20207;-85
2022/10/10 07:03:19;;;;;;;3.35;2.47;;;11.70;99.90;;;;;;5035726;28;20209;-85
2022/10/10 07:05:54;;;;;;;2.55;2.28;;;11.70;99.90;;;;;;5035200;28;20221;-85
2022/10/10 07:08:23;;;;;;;3.58;2.60;;;11.80;99.90;;;;;;5035717;28;20229;-85
2022/10/10 07:10:51;;;;;;;2.88;2.20;;;11.80;99.90;;;;;;5035733;28;20215;-85
2022/10/10 07:13:20;;;;;;;3.00;2.13;;;11.90;99.90;;;;;;5034887;28;20214;-85
2022/10/10 07:15:48;;;;;;;3.22;2.35;;;12.00;99.90;;;;;;5035457;28;20217;-85
2022/10/10 07:18:18;;;;;;;2.97;2.55;;;12.10;99.90;;;;;;5034728;28;20226;-85
2022/10/10 07:20:46;;;;;;;3.03;2.72;;;12.20;99.90;;;;;;5035381;28;20213;-85
2022/10/10 07:23:16;;;;;;;4.22;2.50;;;12.20;99.90;;;;;;5034826;28;20199;-85
2022/10/10 07:25:44;;;;;;;3.78;2.53;;;12.30;99.90;;;;;;5034334;28;20230;-85
2022/10/10 07:28:13;;;;;;;3.50;3.20;;;12.30;99.90;;;;;;5033982;28;20288;-85
2022/10/10 07:30:42;;;;;;;2.55;2.35;;;12.40;99.90;;;;;;5034155;28;20202;-85
2022/10/10 07:33:11;;;;;;;4.55;2.33;;;12.40;99.90;;;;;;5034384;28;20210;-85
2022/10/10 07:35:39;;;;;;;3.22;2.45;;;12.50;99.90;;;;;;5034678;28;20199;-85
2022/10/10 07:38:08;;;;;;;3.55;2.42;;;12.50;99.90;;;;;;5034202;28;20218;-85
2022/10/10 07:40:39;;;;;;;2.45;2.25;;;12.60;99.90;;;;;;5032822;28;20206;-85
2022/10/10 07:43:08;;;;;;;2.80;2.38;;;12.60;99.90;;;;;;5034411;28;20280;-86
2022/10/10 07:45:38;;;;;;;4.65;2.60;;;12.70;99.90;;;;;;5034413;28;20226;-86
2022/10/10 07:48:07;;;;;;;2.80;2.60;;;12.70;99.90;;;;;;5034676;28;20234;-86
2022/10/10 07:50:35;;;;;;;3.15;2.13;;;12.80;99.90;;;;;;5034014;28;20206;-86
2022/10/10 07:53:03;;;;;;;2.42;2.22;;;12.80;99.90;;;;;;5034390;28;20206;-86
2022/10/10 07:55:31;;;;;;;7.28;2.42;;;12.90;99.90;;;;;;5034130;28;20218;-86
2022/10/10 07:58:02;;;;;;;2.75;2.38;;;13.00;99.90;;;;;;5033879;28;20239;-86
2022/10/10 08:00:32;;;;;;;3.88;2.53;;;13.10;99.90;;;;;;5034016;28;20206;-86
2022/10/10 08:03:00;;;;;;;6.30;2.70;;;13.20;99.90;;;;;;5034319;28;20210;-85
2022/10/10 08:05:29;;;;;;;2.50;2.30;;;13.20;99.90;;;;;;5033384;28;20219;-85
2022/10/10 08:07:57;;;;;;;2.63;2.42;;;13.30;99.90;;;;;;5033619;28;20231;-85
2022/10/10 08:10:27;;;;;;;2.92;2.72;;;13.40;99.90;;;;;;5033620;28;20203;-85
2022/10/10 08:12:55;;;;;;;3.58;2.60;;;13.40;99.90;;;;;;5033818;28;20206;-85
2022/10/10 08:15:25;;;;;;;2.95;2.40;;;13.50;99.90;;;;;;5033741;28;20210;-85
2022/10/10 08:17:57;;;;;;;2.97;2.50;;;13.50;99.90;;;;;;5033655;28;20230;-85
2022/10/10 08:20:25;;;;;;;3.08;2.75;;;13.60;99.90;;;;;;5033408;28;20213;-85
2022/10/10 08:22:53;;;;;;;5.68;3.15;;;13.70;99.90;;;;;;5033891;28;20217;-85
2022/10/10 08:25:22;;;;;;;3.85;2.67;;;13.80;99.90;;;;;;5033673;28;20217;-86
2022/10/10 08:27:50;;;;;;;2.50;2.30;;;13.80;99.90;;;;;;5033655;28;20241;-85
2022/10/10 08:30:18;;;;;;;3.92;2.83;;;13.90;99.90;;;;;;5033325;28;20217;-85
2022/10/10 08:32:49;;;;;;;2.95;2.30;;;14.10;99.90;;;;;;5033305;28;20210;-86
2022/10/10 08:35:18;;;;;;;2.80;2.53;;;14.30;99.90;;;;;;5033075;28;20208;-85
2022/10/10 08:37:46;;;;;;;2.47;2.28;;;14.40;99.90;;;;;;5033200;28;20234;-85
2022/10/10 08:40:16;;;;;;;2.60;1.95;;;14.50;99.90;;;;;;5032916;28;20206;-85
2022/10/10 08:42:51;;;;;;;4.60;2.55;;;14.60;99.90;;;;;;5032992;28;20217;-85
2022/10/10 08:45:23;;;;;;;2.10;1.92;;;14.70;99.90;;;;;;5033225;28;20233;-85
2022/10/10 08:47:56;;;;;;;2.30;2.10;;;14.80;99.90;;;;;;5033003;28;20233;-85
2022/10/10 08:50:30;;;;;;;2.42;2.22;;;15.00;99.90;;;;;;5032615;28;20207;-85
2022/10/10 08:53:04;;;;;;;3.20;2.40;;;15.20;99.90;;;;;;5033394;28;20217;-85
2022/10/10 08:55:39;;;;;;;2.13;1.92;;;15.40;99.90;;;;;;5033429;28;20201;-85
2022/10/10 08:58:16;;;;;;;2.47;2.13;;;15.70;99.90;;;;;;5033296;28;20233;-86
2022/10/10 09:01:02;;;;;;;2.55;2.10;;;16.00;99.90;;;;;;5032790;28;20281;-85
2022/10/10 09:03:37;;;;;;;2.78;2.45;;;16.20;99.90;;;;;;5032757;28;20222;-85
2022/10/10 09:06:25;;;;;;;2.35;1.92;;;16.40;99.90;;;;;;5032742;28;20232;-85
2022/10/10 09:09:08;;;;;;;2.97;2.67;;;16.90;99.90;;;;;;5032802;28;20292;-85
2022/10/10 09:11:48;;;;;;;2.95;2.45;;;17.50;99.90;;;;;;5032766;28;20198;-85
2022/10/10 09:14:28;;;;;;;2.15;2.00;;;17.80;99.90;;;;;;5032889;28;20208;-85
2022/10/10 09:17:08;;;;;;;2.63;2.42;;;17.90;99.90;;;;;;5033044;28;20244;-84
2022/10/10 09:19:47;;;;;;;3.33;2.55;;;18.10;99.90;;;;;;5032559;28;20202;-85
2022/10/10 09:22:22;;;;;;;5.35;2.88;;;18.20;99.90;;;;;;5032799;28;20214;-85
2022/10/10 09:24:55;;;;;;;2.40;2.20;;;18.40;99.90;;;;;;5032822;28;20282;-85
2022/10/10 09:27:29;;;;;;;2.42;2.28;;;18.50;99.90;;;;;;5032168;28;20234;-85
2022/10/10 09:30:04;;;;;;;9.35;2.80;;;18.70;99.90;;;;;;5032817;28;20206;-84
2022/10/10 09:32:39;;;;;;;2.33;2.13;;;18.70;99.90;;;;;;5032261;28;20202;-84
2022/10/10 09:35:17;;;;;;;2.47;2.28;;;18.70;99.90;;;;;;5032605;28;20213;-84
2022/10/10 09:37:57;;;;;;;2.72;2.35;;;18.90;99.90;;;;;;5032697;28;20292;-84
2022/10/10 09:40:30;;;;;;;2.92;2.40;;;18.60;99.90;;;;;;5032152;28;20209;-84
2022/10/10 09:42:59;;;;;;;2.42;2.22;;;18.40;99.90;;;;;;5032606;28;20206;-85
2022/10/10 09:45:30;;;;;;;3.90;3.05;;;18.30;99.90;;;;;;5032529;28;20217;-84
2022/10/10 09:47:59;;;;;;;2.70;2.50;;;18.40;99.90;;;;;;5032777;28;20238;-84
2022/10/10 09:50:28;;;;;;;2.83;2.63;;;18.50;99.90;;;;;;5032840;28;20202;-84
2022/10/10 09:52:58;;;;;;;11.23;3.08;;;18.50;99.90;;;;;;5032388;28;20203;-84
2022/10/10 09:55:30;;;;;;;5.32;2.72;;;18.50;99.90;;;;;;5032620;28;20217;-84
2022/10/10 09:58:15;;;;;;;3.38;2.40;;;18.40;99.90;;;;;;5032405;28;20230;-86
2022/10/10 10:00:43;;;;;;;3.65;3.03;;;18.50;99.90;;;;;;5031973;28;20202;-85
2022/10/10 10:03:17;;;;;;;5.30;3.15;;;18.70;99.90;;;;;;5034104;28;20214;-85
2022/10/10 10:05:55;;;;;;;4.13;3.53;;;18.80;99.90;;;;;;5035682;28;20246;-84
2022/10/10 10:08:27;;;;;;;3.75;2.90;;;19.00;99.90;;;;;;5035983;28;20226;-84
2022/10/10 10:10:57;;;;;;;3.88;2.92;;;19.20;99.90;;;;;;5035885;28;20211;-84
2022/10/10 10:13:29;;;;;;;4.57;3.22;;;19.30;99.90;;;;;;5036352;28;20294;-84
2022/10/10 10:16:01;;;;;;;4.25;3.88;;;19.60;99.90;;;;;;5035957;28;20199;-84
2022/10/10 10:18:30;;;;;;;3.30;3.03;;;19.70;99.90;;;;;;5035804;28;20376;-85
2022/10/10 10:21:21;;;;;;;3.38;3.08;;;20.20;99.90;;;;;;5036096;28;20264;-84
2022/10/10 10:23:58;;;;;;;5.18;3.35;;;20.60;99.90;;;;;;5035670;28;20206;-84
2022/10/10 10:26:30;;;;;;;6.53;3.72;;;21.00;99.90;;;;;;5035457;28;20222;-84
2022/10/10 10:28:59;;;;;;;4.07;3.35;;;21.20;99.90;;;;;;5035743;28;20280;-84
2022/10/10 10:31:54;;;;;;;3.33;2.97;;;21.20;99.90;;;;;;5035887;28;20214;-85
2022/10/10 10:34:45;;;;;;;3.53;3.22;;;20.90;99.90;;;;;;5035422;28;20210;-84
2022/10/10 10:37:21;;;;;;;3.42;2.90;;;21.10;99.90;;;;;;5035465;28;20218;-84
2022/10/10 10:40:24;;;;;;;4.00;3.38;;;21.20;99.90;;;;;;5035163;28;20210;-84
2022/10/10 10:43:18;;;;;;;2.80;2.60;;;21.40;99.90;;;;;;5033481;28;20210;-84
2022/10/10 10:45:58;;;;;;;8.02;2.88;;;21.80;99.90;;;;;;5034049;28;20198;-84
2022/10/10 10:48:29;;;;;;;4.57;3.25;;;22.00;99.90;;;;;;5035150;28;20226;-84
2022/10/10 10:51:08;;;;;;;6.57;3.63;;;22.20;99.90;;;;;;5035334;28;20202;-84
2022/10/10 10:53:45;;;;;;;3.45;3.15;;;22.20;99.90;;;;;;5035656;28;20210;-84
2022/10/10 10:56:22;;;;;;;3.58;3.13;;;22.20;99.90;;;;;;5035364;28;20202;-84
2022/10/10 10:59:06;;;;;;;4.15;3.40;;;22.00;99.90;;;;;;5034785;28;20225;-84
2022/10/10 11:01:59;;;;;;;3.72;3.42;;;22.00;99.90;;;;;;5035250;28;20214;-83
2022/10/10 11:04:56;;;;;;;3.10;2.80;;;21.90;99.90;;;;;;5035223;28;20268;-83
2022/10/10 11:07:54;;;;;;;3.50;3.20;;;21.60;99.90;;;;;;5034481;28;20249;-84
2022/10/10 11:10:30;;;;;;;4.22;3.17;;;20.90;99.90;;;;;;5034818;28;20210;-84
2022/10/10 11:13:09;;;;;;;4.57;3.10;;;20.50;99.90;;;;;;5034911;28;20224;-84
2022/10/10 11:15:41;;;;;;;3.40;3.10;;;20.40;99.90;;;;;;5034927;28;20211;-84
2022/10/10 11:18:33;;;;;;;3.13;2.83;;;20.20;99.90;;;;;;5034290;28;20230;-84
2022/10/10 11:21:06;;;;;;;10.43;3.30;;;20.00;99.90;;;;;;5034835;28;20214;-84
2022/10/10 11:23:40;;;;;;;7.20;3.47;;;19.80;99.90;;;;;;5034717;28;20215;-84
2022/10/10 11:26:18;;;;;;;4.78;3.28;;;19.60;99.90;;;;;;5034705;28;20207;-84
2022/10/10 11:28:53;;;;;;;4.03;3.63;;;19.40;99.90;;;;;;5034570;28;20206;-84
2022/10/10 11:31:25;;;;;;;3.63;3.33;;;19.50;99.90;;;;;;5034586;28;20209;-84
2022/10/10 11:33:59;;;;;;;3.28;3.03;;;19.50;99.90;;;;;;5034426;28;20225;-84
2022/10/10 11:36:31;;;;;;;3.10;2.75;;;19.40;99.90;;;;;;5034200;28;20210;-84
2022/10/10 11:39:03;;;;;;;5.70;3.15;;;19.40;99.90;;;;;;5034201;28;20218;-84
2022/10/10 11:41:38;;;;;;;4.30;3.00;;;19.40;99.90;;;;;;5034586;28;20213;-84
2022/10/10 11:44:13;;;;;;;3.63;2.58;;;19.40;99.90;;;;;;5034225;28;20206;-83
2022/10/10 11:46:46;;;;;;;5.03;2.80;;;19.60;99.90;;;;;;5034080;28;20237;-84
2022/10/10 11:49:22;;;;;;;3.78;3.22;;;19.70;99.90;;;;;;5034170;28;20245;-84
2022/10/10 11:52:13;;;;;;;13.55;3.13;;;19.80;99.90;;;;;;5034367;28;20221;-84
2022/10/10 11:55:06;;;;;;;4.03;3.50;;;19.70;99.90;;;;;;5033976;28;20237;-84
2022/10/10 11:57:40;;;;;;;4.00;2.92;;;19.40;99.90;;;;;;5033874;28;20234;-85
2022/10/10 12:00:13;;;;;;;3.35;2.95;;;19.40;99.90;;;;;;5033446;28;20293;-84
2022/10/10 12:02:43;;;;;;;3.95;3.55;;;19.30;99.90;;;;;;5034152;28;20213;-84
2022/10/10 12:05:21;;;;;;;8.68;3.65;;;19.20;99.90;;;;;;5034172;28;20210;-84
2022/10/10 12:08:04;;;;;;;3.83;3.22;;;18.80;99.90;;;;;;5033429;28;20234;-84
2022/10/10 12:10:35;;;;;;;3.30;3.00;;;18.80;99.90;;;;;;5033469;28;20202;-84
2022/10/10 12:13:27;;;;;;;4.40;3.17;;;18.50;99.90;;;;;;5033796;28;20297;-84
2022/10/10 12:16:02;;;;;;;4.13;3.10;;;18.50;99.90;;;;;;5033692;28;20313;-84
2022/10/10 12:18:39;;;;;;;3.05;2.80;;;18.40;99.90;;;;;;5033510;28;20229;-84
2022/10/10 12:21:18;;;;;;;3.80;3.50;;;18.30;99.90;;;;;;5033733;28;20206;-84
2022/10/10 12:23:49;;;;;;;3.00;2.80;;;18.40;99.90;;;;;;5033778;28;20206;-85
2022/10/10 12:26:21;;;;;;;5.05;3.80;;;18.40;99.90;;;;;;5032846;28;20198;-85
2022/10/10 12:29:02;;;;;;;3.40;3.10;;;18.40;99.90;;;;;;5033215;28;20222;-85
2022/10/10 12:31:36;;;;;;;3.10;2.85;;;18.30;99.90;;;;;;5033828;28;20206;-84
2022/10/10 12:34:33;;;;;;;3.35;3.05;;;18.30;99.90;;;;;;5033525;28;20218;-84
2022/10/10 12:37:24;;;;;;;4.55;3.65;;;18.30;99.90;;;;;;5032884;28;20237;-84
2022/10/10 12:40:21;;;;;;;3.53;3.08;;;18.40;99.90;;;;;;5028019;28;20206;-85
2022/10/10 12:43:21;;;;;;;3.42;3.20;;;18.60;99.90;;;;;;5033185;28;20214;-84
2022/10/10 12:46:07;;;;;;;4.45;3.88;;;18.90;99.90;;;;;;5016668;28;20217;-84
2022/10/10 12:48:36;;;;;;;5.38;4.63;;;19.40;99.90;;;;;;5032781;28;20237;-84
2022/10/10 12:51:05;;;;;;;13.90;6.50;;;19.80;99.90;;;;;;5033043;28;20223;-84
2022/10/10 12:53:34;;;;;;;4.40;3.95;;;20.00;99.90;;;;;;5033267;28;20210;-84
2022/10/10 12:56:04;;;;;;;7.78;3.92;;;20.20;99.90;;;;;;5033259;28;20241;-85
2022/10/10 12:58:35;;;;;;;4.40;3.28;;;20.10;99.90;;;;;;5032850;28;20226;-85
2022/10/10 13:01:09;;;;;;;5.47;3.75;;;20.00;99.90;;;;;;5032831;28;20210;-85
2022/10/10 13:03:44;;;;;;;8.48;3.08;;;19.90;99.90;;;;;;5032830;28;20210;-84
2022/10/10 13:06:34;;;;;;;5.13;3.83;;;19.90;99.90;;;;;;5032958;28;20206;-84
2022/10/10 13:09:07;;;;;;;3.42;3.17;;;19.90;99.90;;;;;;5032455;28;20251;-84
2022/10/10 13:11:51;;;;;;;4.82;4.05;;;19.60;99.90;;;;;;5033117;28;20202;-84
2022/10/10 13:14:19;;;;;;;5.25;4.10;;;19.40;99.90;;;;;;5033029;28;20248;-84
2022/10/10 13:16:49;;;;;;;4.40;4.00;;;19.30;99.90;;;;;;5032790;28;20230;-85
2022/10/10 13:19:20;;;;;;;7.32;4.13;;;19.30;99.90;;;;;;5032689;28;20209;-84
2022/10/10 13:21:51;;;;;;;4.93;4.07;;;19.20;99.90;;;;;;5032658;28;20194;-84
2022/10/10 13:24:24;;;;;;;4.65;3.75;;;19.30;99.90;;;;;;5032600;28;20206;-84
2022/10/10 13:26:53;;;;;;;3.97;3.03;;;19.30;99.90;;;;;;5032474;28;20249;-86
2022/10/10 13:29:25;;;;;;;5.45;3.80;;;19.30;99.90;;;;;;5032473;28;20226;-84